Terminal Aerodrome Forecast
Issued by NWS Goodland, KS

Current Version | Previous Version | Text Only | Print | Product List | Glossary On
Versions: 1 2 3 4 5 6 7 8 9 10 11 12 13 14 15 16 17 18 19 20 21 22 23 24 25
000
FTUS43 KGLD 300055 AAB
TAFGLD
TAF AMD
KGLD 300055Z 3001/3024 02017G20KT P6SM BKN020
     FM300600 01011KT P6SM BKN020
     FM301000 36008KT P6SM OVC010
     FM301300 01007KT P6SM BKN015
     FM301500 02007KT P6SM BKN040
     FM301800 06005KT P6SM SCT200
     FM302200 12007KT P6SM FEW250=

USA.gov is the U.S. government's official web portal to all federal, state and local government web resources and services.